createdAt,value
2022-10-22T00:00:56.695Z,61.46
2022-10-22T00:03:36.719Z,61.75
2022-10-22T00:06:04.591Z,61.98
2022-10-22T00:08:32.618Z,62.96
2022-10-22T00:11:07.435Z,64.08
2022-10-22T00:13:35.448Z,64.24
2022-10-22T00:16:03.430Z,65.01
2022-10-22T00:18:31.502Z,64.34
2022-10-22T00:20:59.315Z,63.47
2022-10-22T00:23:27.296Z,63.53
2022-10-22T00:25:55.611Z,63.38
2022-10-22T00:28:23.659Z,62.80
2022-10-22T00:30:59.383Z,62.31
2022-10-22T00:33:28.396Z,60.99
2022-10-22T00:35:56.584Z,62.52
2022-10-22T00:38:24.660Z,63.41
2022-10-22T00:40:52.901Z,63.87
2022-10-22T00:43:21.015Z,62.91
2022-10-22T00:45:48.891Z,63.02
2022-10-22T00:48:20.538Z,62.53
2022-10-22T00:50:52.060Z,62.62
2022-10-22T00:53:21.277Z,62.14
2022-10-22T00:55:51.206Z,62.20
2022-10-22T00:58:21.347Z,62.88
2022-10-22T01:00:49.648Z,63.39
2022-10-22T01:03:18.319Z,63.02
2022-10-22T01:06:00.091Z,63.11
2022-10-22T01:08:37.189Z,62.48
2022-10-22T01:11:16.429Z,62.54
2022-10-22T01:13:49.475Z,62.05
2022-10-22T01:16:26.149Z,61.38
2022-10-22T01:19:06.402Z,61.57
2022-10-22T01:21:37.680Z,60.12
2022-10-22T01:24:05.831Z,59.97
2022-10-22T01:26:52.905Z,59.81
2022-10-22T01:29:24.724Z,60.52
2022-10-22T01:31:58.810Z,60.94
2022-10-22T01:34:27.793Z,60.52
2022-10-22T01:36:56.807Z,59.47
2022-10-22T01:39:26.083Z,60.52
2022-10-22T01:41:57.361Z,61.43
2022-10-22T01:44:26.266Z,61.04
2022-10-22T01:47:20.647Z,60.77
2022-10-22T01:49:58.408Z,60.70
2022-10-22T01:52:26.405Z,60.52
2022-10-22T01:54:54.203Z,60.99
2022-10-22T01:57:38.342Z,61.07
2022-10-22T02:00:13.901Z,61.84
2022-10-22T02:02:53.556Z,61.78
2022-10-22T02:05:24.924Z,61.30
2022-10-22T02:07:56.189Z,61.66
2022-10-22T02:10:25.057Z,61.78
2022-10-22T02:12:54.867Z,61.63
2022-10-22T02:15:24.790Z,62.15
2022-10-22T02:17:54.597Z,63.10
2022-10-22T02:20:26.066Z,63.81
2022-10-22T02:22:54.420Z,63.87
2022-10-22T02:25:24.642Z,63.35
2022-10-22T02:28:11.968Z,63.33
2022-10-22T02:30:42.694Z,64.63
2022-10-22T02:33:16.875Z,64.27
2022-10-22T02:35:45.696Z,66.01
2022-10-22T02:38:13.984Z,66.32
2022-10-22T02:40:41.958Z,65.42
2022-10-22T02:43:09.849Z,65.05
2022-10-22T02:45:38.194Z,65.50
2022-10-22T02:48:06.445Z,64.86
2022-10-22T02:50:34.477Z,64.84
2022-10-22T02:53:02.323Z,64.45
2022-10-22T02:55:30.298Z,64.65
2022-10-22T02:57:58.328Z,63.45
2022-10-22T03:00:26.710Z,63.65
2022-10-22T03:02:54.623Z,63.58
2022-10-22T03:05:22.965Z,64.23
2022-10-22T03:07:50.799Z,64.90
2022-10-22T03:10:18.682Z,64.91
2022-10-22T03:12:46.728Z,65.49
2022-10-22T03:15:14.854Z,65.67
2022-10-22T03:17:43.081Z,65.60
2022-10-22T03:20:11.375Z,65.26
2022-10-22T03:22:41.174Z,63.49
2022-10-22T03:25:12.301Z,63.73
2022-10-22T03:27:41.255Z,64.32
2022-10-22T03:30:09.697Z,64.04
2022-10-22T03:32:37.774Z,63.90
2022-10-22T03:35:06.345Z,63.99
2022-10-22T03:37:35.111Z,63.10
2022-10-22T03:40:04.920Z,61.40
2022-10-22T03:42:33.048Z,63.69
2022-10-22T03:45:00.899Z,63.16
2022-10-22T03:47:28.698Z,61.80
2022-10-22T03:49:56.515Z,63.16
2022-10-22T03:52:24.378Z,63.08
2022-10-22T03:54:52.377Z,62.99
2022-10-22T03:57:20.515Z,62.72
2022-10-22T03:59:48.486Z,62.27
2022-10-22T04:02:16.865Z,62.57
2022-10-22T04:04:44.834Z,62.55
2022-10-22T04:07:12.802Z,62.01
2022-10-22T04:09:40.669Z,63.11
2022-10-22T04:12:09.676Z,62.83
2022-10-22T04:14:37.535Z,61.72
2022-10-22T04:17:05.499Z,62.81
2022-10-22T04:19:33.463Z,62.65
2022-10-22T04:22:01.513Z,63.01
2022-10-22T04:24:30.458Z,63.16
2022-10-22T04:26:58.391Z,63.19
2022-10-22T04:29:26.416Z,63.30
2022-10-22T04:31:54.430Z,63.25
2022-10-22T04:34:22.241Z,63.08
2022-10-22T04:36:50.551Z,63.13
2022-10-22T04:39:18.393Z,62.34
2022-10-22T04:41:46.575Z,62.94
2022-10-22T04:44:18.121Z,62.04
2022-10-22T04:46:46.448Z,63.85
2022-10-22T04:49:14.504Z,64.65
2022-10-22T04:51:42.298Z,65.24
2022-10-22T04:54:10.337Z,65.23
2022-10-22T04:56:38.309Z,64.86
2022-10-22T04:59:07.625Z,64.74
2022-10-22T05:01:42.716Z,64.41
2022-10-22T05:04:13.710Z,64.40
2022-10-22T05:06:42.022Z,64.48
2022-10-22T05:09:15.296Z,65.72
2022-10-22T05:11:48.831Z,66.82
2022-10-22T05:14:20.461Z,66.90
2022-10-22T05:16:49.513Z,67.00
2022-10-22T05:19:24.283Z,66.89
2022-10-22T05:21:52.804Z,66.48
2022-10-22T05:24:21.284Z,65.70
2022-10-22T05:26:51.044Z,64.35
2022-10-22T05:29:19.030Z,62.81
2022-10-22T05:31:47.344Z,63.36
2022-10-22T05:34:15.714Z,63.77
2022-10-22T05:36:44.015Z,63.72
2022-10-22T05:39:12.472Z,62.90
2022-10-22T05:41:40.747Z,63.16
2022-10-22T05:44:11.607Z,63.17
2022-10-22T05:46:39.872Z,62.57
2022-10-22T05:49:08.240Z,61.44
2022-10-22T05:51:37.533Z,60.46
2022-10-22T05:54:07.755Z,60.66
2022-10-22T05:56:37.260Z,61.14
2022-10-22T05:59:05.386Z,61.14
2022-10-22T06:01:35.454Z,60.36
2022-10-22T06:04:05.534Z,59.65
2022-10-22T06:06:35.290Z,58.92
2022-10-22T06:09:06.067Z,58.53
2022-10-22T06:11:35.247Z,57.64
2022-10-22T06:14:03.847Z,56.13
2022-10-22T06:16:32.135Z,53.33
2022-10-22T06:19:03.851Z,50.76
2022-10-22T06:21:32.621Z,47.69
2022-10-22T06:24:01.711Z,47.39
2022-10-22T06:26:30.281Z,44.72
2022-10-22T06:28:58.560Z,42.55
2022-10-22T06:31:26.842Z,42.21
2022-10-22T06:33:55.282Z,40.68
2022-10-22T06:36:24.412Z,40.20
2022-10-22T06:38:53.334Z,39.64
2022-10-22T06:41:24.219Z,39.25
2022-10-22T06:43:55.973Z,37.86
2022-10-22T06:46:24.817Z,38.04
2022-10-22T06:49:00.236Z,38.61
2022-10-22T06:51:28.595Z,38.72
2022-10-22T06:53:57.472Z,36.66
2022-10-22T06:56:26.738Z,36.17
2022-10-22T06:58:56.183Z,36.06
2022-10-22T07:01:26.283Z,34.65
2022-10-22T07:03:54.587Z,33.95
2022-10-22T07:06:23.379Z,33.66
2022-10-22T07:08:51.574Z,34.36
2022-10-22T07:11:23.921Z,35.07
2022-10-22T07:13:53.631Z,35.31
2022-10-22T07:16:21.646Z,34.58
2022-10-22T07:18:49.773Z,34.30
2022-10-22T07:21:18.971Z,33.68
2022-10-22T07:23:47.178Z,35.04
2022-10-22T07:26:16.036Z,35.67
2022-10-22T07:28:44.191Z,35.94
2022-10-22T07:31:12.998Z,36.94
2022-10-22T07:33:41.359Z,37.87
2022-10-22T07:36:11.494Z,39.27
2022-10-22T07:38:39.464Z,40.96
2022-10-22T07:41:07.640Z,42.79
2022-10-22T07:43:35.927Z,44.13
2022-10-22T07:46:03.979Z,44.38
2022-10-22T07:48:32.246Z,43.92
2022-10-22T07:51:00.122Z,44.05
2022-10-22T07:53:28.091Z,44.47
2022-10-22T07:55:56.919Z,44.15
2022-10-22T07:58:24.917Z,44.37
2022-10-22T08:00:55.531Z,44.73
2022-10-22T08:03:23.858Z,44.51
2022-10-22T08:05:51.927Z,44.18
2022-10-22T08:08:20.255Z,43.82
2022-10-22T08:10:51.150Z,43.74
2022-10-22T08:13:19.315Z,43.99
2022-10-22T08:15:47.474Z,43.95
2022-10-22T08:18:16.883Z,43.92
2022-10-22T08:20:45.063Z,43.72
2022-10-22T08:23:13.029Z,43.55
2022-10-22T08:25:40.894Z,43.52
2022-10-22T08:28:08.697Z,43.60
2022-10-22T08:30:38.701Z,43.45
2022-10-22T08:33:06.849Z,43.17
2022-10-22T08:35:34.920Z,43.43
2022-10-22T08:38:02.889Z,42.96
2022-10-22T08:40:32.758Z,42.02
2022-10-22T08:43:18.186Z,41.64
2022-10-22T08:46:01.303Z,41.42
2022-10-22T08:48:41.875Z,41.07
2022-10-22T08:51:15.500Z,40.52
2022-10-22T08:54:01.472Z,39.78
2022-10-22T08:56:30.546Z,38.77
2022-10-22T08:59:02.584Z,39.58
2022-10-22T09:01:35.814Z,40.76
2022-10-22T09:04:03.999Z,42.12
2022-10-22T09:06:33.694Z,42.61
2022-10-22T09:09:02.779Z,42.55
2022-10-22T09:11:33.318Z,43.67
2022-10-22T09:14:01.856Z,45.31
2022-10-22T09:16:36.105Z,45.68
2022-10-22T09:19:30.404Z,44.83
2022-10-22T09:22:02.669Z,43.95
2022-10-22T09:24:34.739Z,43.34
2022-10-22T09:27:10.345Z,43.66
2022-10-22T09:29:38.353Z,44.50
2022-10-22T09:32:06.291Z,45.26
2022-10-22T09:34:34.125Z,44.93
2022-10-22T09:37:08.917Z,44.00
2022-10-22T09:39:38.632Z,43.11
2022-10-22T09:42:07.094Z,42.64
2022-10-22T09:44:36.483Z,42.63
2022-10-22T09:47:07.962Z,41.71
2022-10-22T09:49:36.539Z,41.52
2022-10-22T09:52:24.273Z,41.22
2022-10-22T09:54:52.605Z,40.87
2022-10-22T09:57:25.031Z,40.76
2022-10-22T09:59:55.138Z,40.71
2022-10-22T10:02:38.184Z,41.17
2022-10-22T10:05:07.547Z,41.69
2022-10-22T10:07:36.295Z,41.92
2022-10-22T10:10:16.943Z,41.94
2022-10-22T10:12:49.933Z,42.17
2022-10-22T10:15:27.127Z,41.66
2022-10-22T10:18:01.491Z,41.52
2022-10-22T10:20:49.733Z,41.51
2022-10-22T10:23:36.532Z,41.05
2022-10-22T10:26:16.231Z,40.93
2022-10-22T10:28:44.377Z,40.84
2022-10-22T10:31:12.411Z,41.12
2022-10-22T10:34:03.937Z,41.27
2022-10-22T10:36:40.233Z,41.12
2022-10-22T10:39:10.999Z,40.83
2022-10-22T10:41:57.675Z,41.18
2022-10-22T10:44:25.539Z,40.91
2022-10-22T10:46:56.146Z,40.37
2022-10-22T10:49:28.313Z,40.42
2022-10-22T10:52:11.434Z,40.35
2022-10-22T10:54:42.053Z,39.85
2022-10-22T10:57:32.970Z,39.63
2022-10-22T11:00:20.256Z,39.16
2022-10-22T11:03:07.343Z,38.78
2022-10-22T11:05:35.160Z,38.76
2022-10-22T11:08:06.729Z,38.76
2022-10-22T11:10:43.205Z,39.06
2022-10-22T11:13:29.934Z,39.15
2022-10-22T11:16:16.518Z,38.87
2022-10-22T11:19:04.680Z,38.64
2022-10-22T11:21:40.034Z,39.06
2022-10-22T11:24:07.894Z,39.54
2022-10-22T11:26:39.284Z,39.61
2022-10-22T11:29:11.280Z,39.54
2022-10-22T11:31:40.258Z,39.55
2022-10-22T11:34:32.574Z,39.52
2022-10-22T11:37:02.201Z,39.50
2022-10-22T11:39:30.904Z,39.36
2022-10-22T11:41:59.413Z,38.97
2022-10-22T11:44:30.366Z,39.09
2022-10-22T11:47:08.767Z,38.93
2022-10-22T11:49:44.307Z,38.58
2022-10-22T11:52:30.606Z,38.35
2022-10-22T11:55:02.571Z,37.84
2022-10-22T11:57:38.258Z,37.95
2022-10-22T12:00:11.895Z,38.02
2022-10-22T12:02:46.238Z,38.19
2022-10-22T12:05:24.090Z,38.52
2022-10-22T12:08:01.701Z,38.85
2022-10-22T12:10:48.179Z,39.28
2022-10-22T12:13:27.983Z,39.73
2022-10-22T12:15:58.137Z,40.30
2022-10-22T12:18:28.836Z,40.42
2022-10-22T12:20:56.795Z,40.67
2022-10-22T12:23:30.918Z,41.35
2022-10-22T12:25:58.780Z,41.18
2022-10-22T12:28:26.958Z,40.91
2022-10-22T12:30:55.115Z,40.99
2022-10-22T12:33:23.697Z,41.07
2022-10-22T12:35:55.676Z,41.30
2022-10-22T12:38:24.352Z,41.17
2022-10-22T12:40:55.301Z,40.91
2022-10-22T12:43:25.630Z,41.46
2022-10-22T12:45:54.307Z,41.64
2022-10-22T12:48:23.752Z,41.39
2022-10-22T12:50:53.047Z,41.21
2022-10-22T12:53:32.151Z,41.26
2022-10-22T12:56:01.635Z,41.23
2022-10-22T12:58:33.760Z,40.99
2022-10-22T13:01:02.370Z,41.01
2022-10-22T13:03:35.587Z,41.12
2022-10-22T13:06:32.953Z,41.40
2022-10-22T13:09:13.959Z,41.13
2022-10-22T13:11:49.703Z,41.24
2022-10-22T13:14:29.007Z,41.26
2022-10-22T13:17:11.527Z,41.07
2022-10-22T13:19:39.387Z,40.99
2022-10-22T13:22:26.932Z,41.30
2022-10-22T13:27:29.378Z,41.86
2022-10-22T13:30:00.651Z,41.81
2022-10-22T13:32:31.080Z,42.12
2022-10-22T13:35:03.034Z,42.34
2022-10-22T13:37:32.615Z,42.67
2022-10-22T13:40:00.387Z,43.16
2022-10-22T13:42:28.490Z,43.55
2022-10-22T13:44:56.339Z,43.82
2022-10-22T13:47:26.110Z,44.37
2022-10-22T13:52:30.157Z,45.24
2022-10-22T13:54:58.174Z,45.78
2022-10-22T13:57:26.219Z,45.22
2022-10-22T13:59:54.364Z,45.52
2022-10-22T14:02:24.821Z,45.65
2022-10-22T14:04:52.728Z,45.70
2022-10-22T14:07:21.493Z,45.50
2022-10-22T14:09:49.516Z,45.86
2022-10-22T14:12:17.642Z,46.02
2022-10-22T14:14:45.550Z,45.43
2022-10-22T14:17:16.845Z,45.33
2022-10-22T14:19:46.129Z,45.52
2022-10-22T14:22:17.880Z,45.53
2022-10-22T14:24:46.264Z,46.06
2022-10-22T14:27:15.796Z,45.97
2022-10-22T14:29:43.849Z,46.06
2022-10-22T14:32:17.346Z,46.95
2022-10-22T14:34:47.125Z,47.02
2022-10-22T14:37:17.230Z,47.42
2022-10-22T14:39:52.736Z,47.90
2022-10-22T14:42:20.954Z,48.79
2022-10-22T14:44:49.048Z,48.23
2022-10-22T14:47:17.264Z,47.82
2022-10-22T14:49:45.098Z,48.49
2022-10-22T14:52:14.941Z,48.71
2022-10-22T14:54:43.290Z,47.70
2022-10-22T14:57:11.676Z,47.83
2022-10-22T14:59:40.116Z,47.87
2022-10-22T15:02:11.010Z,48.64
2022-10-22T15:04:39.741Z,49.03
2022-10-22T15:07:07.843Z,48.07
2022-10-22T15:09:35.716Z,48.53
2022-10-22T15:12:04.051Z,50.19
2022-10-22T15:14:31.953Z,50.72
2022-10-22T15:17:00.064Z,50.17
2022-10-22T15:19:29.492Z,49.80
2022-10-22T15:21:57.503Z,49.82
2022-10-22T15:24:25.581Z,50.07
2022-10-22T15:26:54.163Z,49.85
2022-10-22T15:29:21.966Z,49.31
2022-10-22T15:31:51.422Z,50.03
2022-10-22T15:34:23.881Z,49.11
2022-10-22T15:36:54.068Z,48.66
2022-10-22T15:39:22.863Z,48.25
2022-10-22T15:41:51.805Z,48.27
2022-10-22T15:44:24.948Z,48.65
2022-10-22T15:46:55.018Z,48.94
2022-10-22T15:49:27.691Z,49.76
2022-10-22T15:51:56.127Z,51.01
2022-10-22T15:54:28.838Z,51.94
2022-10-22T15:56:58.279Z,52.83
2022-10-22T15:59:26.229Z,53.12
2022-10-22T16:01:54.278Z,53.61
2022-10-22T16:04:22.162Z,53.64
2022-10-22T16:06:52.805Z,51.78
2022-10-22T16:09:25.254Z,51.37
2022-10-22T16:14:28.779Z,52.26
2022-10-22T16:16:56.941Z,53.45
2022-10-22T16:19:25.059Z,54.31
2022-10-22T16:21:54.934Z,54.20
2022-10-22T16:24:23.005Z,53.32
2022-10-22T16:26:52.820Z,53.91
2022-10-22T16:29:20.776Z,54.36
2022-10-22T16:31:48.770Z,54.96
2022-10-22T16:34:16.711Z,54.58
2022-10-22T16:36:44.723Z,53.64
2022-10-22T16:39:12.651Z,53.31
2022-10-22T16:41:40.541Z,53.59
2022-10-22T16:44:09.968Z,54.17
2022-10-22T16:46:38.730Z,53.58
2022-10-22T16:49:07.349Z,53.16
2022-10-22T16:51:35.665Z,52.89
2022-10-22T16:54:05.690Z,52.39
2022-10-22T16:56:36.797Z,53.02
2022-10-22T16:59:04.604Z,52.62
2022-10-22T17:01:36.763Z,52.52
2022-10-22T17:04:07.847Z,52.26
2022-10-22T17:06:36.076Z,52.49
2022-10-22T17:09:04.537Z,52.37
2022-10-22T17:11:36.346Z,52.80
2022-10-22T17:14:06.534Z,53.59
2022-10-22T17:16:34.434Z,53.59
2022-10-22T17:19:03.448Z,53.58
2022-10-22T17:21:31.277Z,53.81
2022-10-22T17:23:59.148Z,54.42
2022-10-22T17:26:27.263Z,53.35
2022-10-22T17:28:55.484Z,52.17
2022-10-22T17:31:28.153Z,52.28
2022-10-22T17:33:56.940Z,51.71
2022-10-22T17:36:25.215Z,52.78
2022-10-22T17:38:54.435Z,53.67
2022-10-22T17:41:23.916Z,54.99
2022-10-22T17:43:55.884Z,55.19
2022-10-22T17:46:25.270Z,54.21
2022-10-22T17:48:55.234Z,54.53
2022-10-22T17:51:24.062Z,55.98
2022-10-22T17:53:52.699Z,55.93
2022-10-22T17:56:21.983Z,56.20
2022-10-22T17:58:50.745Z,56.74
2022-10-22T18:01:18.758Z,58.54
2022-10-22T18:03:46.905Z,59.24
2022-10-22T18:06:15.483Z,59.46
2022-10-22T18:08:43.983Z,58.66
2022-10-22T18:11:13.574Z,59.79
2022-10-22T18:13:41.547Z,60.57
2022-10-22T18:16:09.810Z,60.52
2022-10-22T18:18:37.853Z,58.91
2022-10-22T18:21:06.160Z,57.88
2022-10-22T18:23:34.430Z,59.23
2022-10-22T18:26:04.627Z,59.01
2022-10-22T18:28:32.723Z,58.47
2022-10-22T18:31:05.035Z,58.08
2022-10-22T18:33:33.067Z,57.79
2022-10-22T18:36:08.840Z,57.90
2022-10-22T18:38:40.145Z,58.02
2022-10-22T18:41:09.651Z,59.45
2022-10-22T18:43:37.620Z,60.23
2022-10-22T18:46:08.984Z,60.63
2022-10-22T18:48:37.046Z,61.06
2022-10-22T18:51:06.295Z,60.12
2022-10-22T18:53:35.290Z,61.16
2022-10-22T18:56:09.883Z,61.96
2022-10-22T18:58:41.484Z,61.49
2022-10-22T19:01:13.355Z,61.25
2022-10-22T19:03:42.277Z,61.14
2022-10-22T19:06:10.657Z,61.53
2022-10-22T19:08:38.512Z,60.61
2022-10-22T19:11:10.962Z,59.69
2022-10-22T19:13:39.203Z,59.50
2022-10-22T19:16:08.368Z,59.60
2022-10-22T19:18:36.746Z,59.48
2022-10-22T19:21:05.131Z,59.20
2022-10-22T19:23:33.313Z,60.10
2022-10-22T19:26:02.603Z,60.99
2022-10-22T19:28:31.055Z,60.89
2022-10-22T19:30:59.660Z,62.34
2022-10-22T19:33:28.114Z,63.67
2022-10-22T19:35:56.132Z,63.96
2022-10-22T19:38:29.655Z,65.05
2022-10-22T19:40:57.752Z,64.62
2022-10-22T19:43:26.567Z,64.58
2022-10-22T19:45:54.948Z,64.60
2022-10-22T19:48:23.001Z,64.24
2022-10-22T19:50:51.391Z,65.40
2022-10-22T19:53:19.409Z,66.40
2022-10-22T19:55:47.327Z,67.48
2022-10-22T19:58:16.122Z,64.55
2022-10-22T20:00:44.184Z,64.11
2022-10-22T20:03:14.709Z,67.98
2022-10-22T20:05:42.927Z,67.07
2022-10-22T20:08:11.337Z,68.31
2022-10-22T20:10:39.675Z,67.80
2022-10-22T20:13:07.921Z,69.38
2022-10-22T20:15:36.357Z,70.99
2022-10-22T20:18:04.577Z,72.54
2022-10-22T20:20:32.644Z,72.40
2022-10-22T20:23:00.499Z,72.33
2022-10-22T20:25:28.391Z,72.90
2022-10-22T20:27:56.218Z,72.59
2022-10-22T20:30:24.215Z,69.88
2022-10-22T20:32:52.075Z,71.17
2022-10-22T20:35:19.942Z,70.78
2022-10-22T20:37:47.733Z,70.10
2022-10-22T20:40:15.779Z,71.42
2022-10-22T20:42:44.287Z,70.64
2022-10-22T20:45:12.624Z,70.56
2022-10-22T20:47:51.345Z,71.12
2022-10-22T20:50:29.800Z,70.52
2022-10-22T20:52:57.745Z,70.32
2022-10-22T20:55:26.126Z,69.38
2022-10-22T20:57:54.266Z,69.34
2022-10-22T21:00:22.259Z,68.82
2022-10-22T21:02:50.224Z,68.33
2022-10-22T21:05:18.197Z,68.48
2022-10-22T21:07:46.099Z,70.05
2022-10-22T21:10:14.029Z,71.19
2022-10-22T21:12:42.821Z,71.73
2022-10-22T21:15:12.762Z,71.93
2022-10-22T21:17:40.988Z,72.36
2022-10-22T21:20:08.866Z,72.21
2022-10-22T21:22:36.890Z,72.68
2022-10-22T21:25:05.431Z,71.74
2022-10-22T21:27:33.633Z,72.13
2022-10-22T21:30:02.077Z,71.78
2022-10-22T21:32:30.265Z,69.40
2022-10-22T21:34:58.322Z,68.81
2022-10-22T21:37:30.133Z,68.22
2022-10-22T21:39:58.380Z,69.88
2022-10-22T21:42:26.410Z,70.39
2022-10-22T21:44:54.396Z,72.60
2022-10-22T21:47:23.699Z,74.01
2022-10-22T21:49:51.665Z,72.21
2022-10-22T21:52:19.936Z,71.76
2022-10-22T21:54:47.908Z,74.20
2022-10-22T21:57:15.709Z,75.16
2022-10-22T21:59:43.534Z,74.50
2022-10-22T22:02:11.497Z,76.57
2022-10-22T22:04:39.960Z,78.42
2022-10-22T22:07:08.003Z,78.78
2022-10-22T22:09:35.929Z,79.54
2022-10-22T22:12:03.898Z,79.15
2022-10-22T22:14:33.024Z,79.70
2022-10-22T22:17:01.021Z,80.03
2022-10-22T22:19:28.959Z,80.26
2022-10-22T22:21:56.791Z,78.62
2022-10-22T22:24:24.778Z,77.38
2022-10-22T22:26:53.050Z,77.50
2022-10-22T22:29:21.016Z,77.54
2022-10-22T22:31:48.968Z,77.56
2022-10-22T22:34:17.605Z,76.80
2022-10-22T22:36:47.080Z,76.64
2022-10-22T22:39:17.049Z,77.04
2022-10-22T22:41:45.555Z,77.37
2022-10-22T22:44:13.798Z,77.63
2022-10-22T22:46:42.376Z,78.16
2022-10-22T22:49:10.556Z,77.83
2022-10-22T22:51:38.652Z,78.05
2022-10-22T22:54:06.584Z,77.43
2022-10-22T22:56:34.866Z,77.44
2022-10-22T22:59:04.069Z,77.17
2022-10-22T23:01:36.046Z,78.54
2022-10-22T23:04:06.404Z,79.55
2022-10-22T23:06:36.893Z,80.52
2022-10-22T23:09:06.318Z,80.21
2022-10-22T23:11:34.590Z,80.03
2022-10-22T23:14:04.295Z,79.71
2022-10-22T23:16:33.707Z,79.68
2022-10-22T23:19:01.987Z,78.79
2022-10-22T23:21:31.477Z,79.10
2022-10-22T23:24:00.777Z,78.70
2022-10-22T23:26:33.317Z,78.71
2022-10-22T23:29:02.146Z,79.47
2022-10-22T23:31:30.374Z,81.63
2022-10-22T23:33:58.795Z,82.38
2022-10-22T23:36:27.424Z,83.00
2022-10-22T23:38:56.060Z,82.84
2022-10-22T23:41:23.924Z,82.72
2022-10-22T23:43:51.896Z,82.73
2022-10-22T23:46:19.962Z,81.93
2022-10-22T23:48:47.913Z,81.10
2022-10-22T23:51:16.444Z,81.34
2022-10-22T23:53:45.137Z,81.98
2022-10-22T23:56:18.276Z,81.67
2022-10-22T23:58:49.286Z,81.50
